sensor_id;sensor_type;location;lat;lon;timestamp;P1;durP1;ratioP1;P2;durP2;ratioP2
36241;SDS011;22283;42.748;12.732;2023-01-13T00:02:36;9.50;;;4.90;;
36241;SDS011;22283;42.748;12.732;2023-01-13T00:07:36;9.13;;;4.37;;
36241;SDS011;22283;42.748;12.732;2023-01-13T00:12:39;7.30;;;4.03;;
36241;SDS011;22283;42.748;12.732;2023-01-13T00:17:43;9.02;;;5.25;;
36241;SDS011;22283;42.748;12.732;2023-01-13T00:22:44;8.20;;;4.33;;
36241;SDS011;22283;42.748;12.732;2023-01-13T00:27:44;8.73;;;5.57;;
36241;SDS011;22283;42.748;12.732;2023-01-13T00:32:45;9.63;;;5.40;;
36241;SDS011;22283;42.748;12.732;2023-01-13T00:37:45;7.33;;;3.87;;
36241;SDS011;22283;42.748;12.732;2023-01-13T00:42:46;10.37;;;4.27;;
36241;SDS011;22283;42.748;12.732;2023-01-13T00:48:05;7.57;;;4.22;;
36241;SDS011;22283;42.748;12.732;2023-01-13T00:53:05;11.00;;;3.50;;
36241;SDS011;22283;42.748;12.732;2023-01-13T00:58:06;6.00;;;3.57;;
36241;SDS011;22283;42.748;12.732;2023-01-13T01:03:06;4.70;;;2.90;;
36241;SDS011;22283;42.748;12.732;2023-01-13T01:08:11;5.43;;;2.80;;
36241;SDS011;22283;42.748;12.732;2023-01-13T01:13:12;3.63;;;2.50;;
36241;SDS011;22283;42.748;12.732;2023-01-13T01:18:16;5.13;;;3.20;;
36241;SDS011;22283;42.748;12.732;2023-01-13T01:23:16;6.17;;;3.13;;
36241;SDS011;22283;42.748;12.732;2023-01-13T01:28:17;7.67;;;5.27;;
36241;SDS011;22283;42.748;12.732;2023-01-13T01:33:20;7.57;;;5.22;;
36241;SDS011;22283;42.748;12.732;2023-01-13T01:38:21;68.22;;;26.40;;
36241;SDS011;22283;42.748;12.732;2023-01-13T01:43:22;8.90;;;4.95;;
36241;SDS011;22283;42.748;12.732;2023-01-13T01:54:29;8.50;;;3.40;;
36241;SDS011;22283;42.748;12.732;2023-01-13T01:59:43;10.18;;;3.25;;
36241;SDS011;22283;42.748;12.732;2023-01-13T02:04:49;4.38;;;2.38;;
36241;SDS011;22283;42.748;12.732;2023-01-13T02:09:51;4.30;;;2.42;;
36241;SDS011;22283;42.748;12.732;2023-01-13T02:15:13;3.95;;;2.45;;
36241;SDS011;22283;42.748;12.732;2023-01-13T02:31:05;7.72;;;3.58;;
36241;SDS011;22283;42.748;12.732;2023-01-13T02:41:53;4.22;;;1.95;;
36241;SDS011;22283;42.748;12.732;2023-01-13T02:47:20;4.75;;;2.63;;
36241;SDS011;22283;42.748;12.732;2023-01-13T02:52:34;5.80;;;3.60;;
36241;SDS011;22283;42.748;12.732;2023-01-13T03:02:41;11.63;;;3.50;;
36241;SDS011;22283;42.748;12.732;2023-01-13T03:23:40;5.65;;;3.42;;
36241;SDS011;22283;42.748;12.732;2023-01-13T03:28:51;9.15;;;3.90;;
36241;SDS011;22283;42.748;12.732;2023-01-13T03:34:00;11.23;;;4.05;;
36241;SDS011;22283;42.748;12.732;2023-01-13T03:39:08;4.57;;;2.92;;
36241;SDS011;22283;42.748;12.732;2023-01-13T03:44:23;5.53;;;3.38;;
36241;SDS011;22283;42.748;12.732;2023-01-13T03:54:55;4.93;;;2.88;;
36241;SDS011;22283;42.748;12.732;2023-01-13T04:00:03;4.30;;;2.70;;
36241;SDS011;22283;42.748;12.732;2023-01-13T04:05:11;6.88;;;3.20;;
36241;SDS011;22283;42.748;12.732;2023-01-13T04:10:15;8.30;;;3.13;;
36241;SDS011;22283;42.748;12.732;2023-01-13T04:15:21;6.90;;;3.10;;
36241;SDS011;22283;42.748;12.732;2023-01-13T04:20:23;6.30;;;3.25;;
36241;SDS011;22283;42.748;12.732;2023-01-13T04:25:23;6.37;;;3.80;;
36241;SDS011;22283;42.748;12.732;2023-01-13T04:30:24;5.60;;;3.03;;
36241;SDS011;22283;42.748;12.732;2023-01-13T04:35:25;5.50;;;3.07;;
36241;SDS011;22283;42.748;12.732;2023-01-13T04:40:25;3.77;;;2.37;;
36241;SDS011;22283;42.748;12.732;2023-01-13T04:45:26;4.60;;;2.47;;
36241;SDS011;22283;42.748;12.732;2023-01-13T04:50:26;4.60;;;2.53;;
36241;SDS011;22283;42.748;12.732;2023-01-13T04:55:27;3.90;;;2.40;;
36241;SDS011;22283;42.748;12.732;2023-01-13T05:00:28;3.97;;;2.47;;
36241;SDS011;22283;42.748;12.732;2023-01-13T05:05:30;4.70;;;2.50;;
36241;SDS011;22283;42.748;12.732;2023-01-13T05:10:31;7.82;;;2.90;;
36241;SDS011;22283;42.748;12.732;2023-01-13T05:15:31;4.33;;;2.63;;
36241;SDS011;22283;42.748;12.732;2023-01-13T05:20:50;4.25;;;2.70;;
36241;SDS011;22283;42.748;12.732;2023-01-13T05:25:51;9.07;;;4.10;;
36241;SDS011;22283;42.748;12.732;2023-01-13T05:30:52;8.70;;;4.13;;
36241;SDS011;22283;42.748;12.732;2023-01-13T05:35:52;12.70;;;4.17;;
36241;SDS011;22283;42.748;12.732;2023-01-13T05:40:53;7.83;;;4.63;;
36241;SDS011;22283;42.748;12.732;2023-01-13T05:46:12;11.30;;;4.50;;
36241;SDS011;22283;42.748;12.732;2023-01-13T05:51:13;6.65;;;4.25;;
36241;SDS011;22283;42.748;12.732;2023-01-13T05:56:14;10.93;;;5.50;;
36241;SDS011;22283;42.748;12.732;2023-01-13T06:01:17;9.88;;;4.13;;
36241;SDS011;22283;42.748;12.732;2023-01-13T06:06:17;9.40;;;4.03;;
36241;SDS011;22283;42.748;12.732;2023-01-13T06:11:18;20.70;;;7.87;;
36241;SDS011;22283;42.748;12.732;2023-01-13T06:16:18;9.50;;;4.70;;
36241;SDS011;22283;42.748;12.732;2023-01-13T06:21:19;9.77;;;4.37;;
36241;SDS011;22283;42.748;12.732;2023-01-13T06:26:19;12.60;;;4.20;;
36241;SDS011;22283;42.748;12.732;2023-01-13T06:31:23;17.52;;;7.40;;
36241;SDS011;22283;42.748;12.732;2023-01-13T06:41:31;18.38;;;6.63;;
36241;SDS011;22283;42.748;12.732;2023-01-13T06:46:51;14.80;;;7.15;;
36241;SDS011;22283;42.748;12.732;2023-01-13T06:51:52;28.07;;;7.17;;
36241;SDS011;22283;42.748;12.732;2023-01-13T06:56:52;11.73;;;6.57;;
36241;SDS011;22283;42.748;12.732;2023-01-13T07:01:53;25.97;;;9.10;;
36241;SDS011;22283;42.748;12.732;2023-01-13T07:06:54;12.67;;;7.17;;
36241;SDS011;22283;42.748;12.732;2023-01-13T07:11:54;18.30;;;6.57;;
36241;SDS011;22283;42.748;12.732;2023-01-13T07:16:55;11.97;;;6.30;;
36241;SDS011;22283;42.748;12.732;2023-01-13T07:21:55;15.83;;;7.33;;
36241;SDS011;22283;42.748;12.732;2023-01-13T07:26:56;10.97;;;6.47;;
36241;SDS011;22283;42.748;12.732;2023-01-13T07:31:57;21.30;;;8.63;;
36241;SDS011;22283;42.748;12.732;2023-01-13T07:36:57;23.23;;;13.77;;
36241;SDS011;22283;42.748;12.732;2023-01-13T07:41:58;18.83;;;10.00;;
36241;SDS011;22283;42.748;12.732;2023-01-13T07:47:17;24.15;;;12.27;;
36241;SDS011;22283;42.748;12.732;2023-01-13T07:52:22;45.55;;;12.90;;
36241;SDS011;22283;42.748;12.732;2023-01-13T07:57:22;28.63;;;10.63;;
36241;SDS011;22283;42.748;12.732;2023-01-13T08:02:23;32.83;;;10.33;;
36241;SDS011;22283;42.748;12.732;2023-01-13T08:07:23;21.70;;;7.60;;
36241;SDS011;22283;42.748;12.732;2023-01-13T08:12:24;19.07;;;10.23;;
36241;SDS011;22283;42.748;12.732;2023-01-13T08:17:43;18.35;;;9.48;;
36241;SDS011;22283;42.748;12.732;2023-01-13T08:22:43;35.67;;;11.63;;
36241;SDS011;22283;42.748;12.732;2023-01-13T08:27:44;12.40;;;6.97;;
36241;SDS011;22283;42.748;12.732;2023-01-13T08:32:48;25.30;;;17.40;;
36241;SDS011;22283;42.748;12.732;2023-01-13T08:42:50;22.65;;;9.45;;
36241;SDS011;22283;42.748;12.732;2023-01-13T08:47:52;11.75;;;7.47;;
36241;SDS011;22283;42.748;12.732;2023-01-13T08:52:52;34.07;;;19.40;;
36241;SDS011;22283;42.748;12.732;2023-01-13T08:57:53;39.47;;;15.80;;
36241;SDS011;22283;42.748;12.732;2023-01-13T09:02:53;15.57;;;8.23;;
36241;SDS011;22283;42.748;12.732;2023-01-13T09:07:54;26.37;;;11.77;;
36241;SDS011;22283;42.748;12.732;2023-01-13T09:12:55;24.93;;;9.30;;
36241;SDS011;22283;42.748;12.732;2023-01-13T09:18:14;27.63;;;9.90;;
36241;SDS011;22283;42.748;12.732;2023-01-13T09:23:15;12.90;;;9.87;;
36241;SDS011;22283;42.748;12.732;2023-01-13T09:28:15;17.77;;;9.93;;
36241;SDS011;22283;42.748;12.732;2023-01-13T09:33:16;25.50;;;8.67;;
36241;SDS011;22283;42.748;12.732;2023-01-13T09:38:35;29.45;;;19.33;;
36241;SDS011;22283;42.748;12.732;2023-01-13T09:43:36;25.23;;;12.03;;
36241;SDS011;22283;42.748;12.732;2023-01-13T09:48:54;20.92;;;10.85;;
36241;SDS011;22283;42.748;12.732;2023-01-13T09:54:10;22.15;;;12.38;;
36241;SDS011;22283;42.748;12.732;2023-01-13T09:59:16;21.42;;;11.38;;
36241;SDS011;22283;42.748;12.732;2023-01-13T10:04:16;18.70;;;15.50;;
36241;SDS011;22283;42.748;12.732;2023-01-13T10:09:21;19.63;;;13.17;;
36241;SDS011;22283;42.748;12.732;2023-01-13T10:14:33;25.80;;;12.65;;
36241;SDS011;22283;42.748;12.732;2023-01-13T10:19:47;20.40;;;13.18;;
36241;SDS011;22283;42.748;12.732;2023-01-13T10:30:10;13.35;;;8.98;;
36241;SDS011;22283;42.748;12.732;2023-01-13T10:35:16;14.90;;;9.05;;
36241;SDS011;22283;42.748;12.732;2023-01-13T10:40:17;27.00;;;11.10;;
36241;SDS011;22283;42.748;12.732;2023-01-13T10:45:22;18.77;;;10.00;;
36241;SDS011;22283;42.748;12.732;2023-01-13T10:50:26;23.80;;;10.88;;
36241;SDS011;22283;42.748;12.732;2023-01-13T10:55:34;19.23;;;11.43;;
36241;SDS011;22283;42.748;12.732;2023-01-13T11:00:39;33.40;;;14.20;;
36241;SDS011;22283;42.748;12.732;2023-01-13T11:05:46;30.67;;;17.00;;
36241;SDS011;22283;42.748;12.732;2023-01-13T11:10:52;30.55;;;19.88;;
36241;SDS011;22283;42.748;12.732;2023-01-13T11:16:00;28.98;;;20.17;;
36241;SDS011;22283;42.748;12.732;2023-01-13T11:21:09;34.85;;;16.88;;
36241;SDS011;22283;42.748;12.732;2023-01-13T11:26:20;27.73;;;17.00;;
36241;SDS011;22283;42.748;12.732;2023-01-13T11:31:30;29.40;;;17.67;;
36241;SDS011;22283;42.748;12.732;2023-01-13T11:36:42;30.17;;;18.98;;
36241;SDS011;22283;42.748;12.732;2023-01-13T11:47:21;34.13;;;18.95;;
36241;SDS011;22283;42.748;12.732;2023-01-13T12:18:56;40.30;;;26.85;;
36241;SDS011;22283;42.748;12.732;2023-01-13T12:29:40;24.85;;;17.48;;
36241;SDS011;22283;42.748;12.732;2023-01-13T12:45:52;44.17;;;24.60;;
36241;SDS011;22283;42.748;12.732;2023-01-13T12:51:01;34.70;;;21.33;;
36241;SDS011;22283;42.748;12.732;2023-01-13T13:01:44;40.78;;;22.92;;
36241;SDS011;22283;42.748;12.732;2023-01-13T13:07:03;23.90;;;13.57;;
36241;SDS011;22283;42.748;12.732;2023-01-13T13:28:34;20.80;;;14.07;;
36241;SDS011;22283;42.748;12.732;2023-01-13T13:33:48;28.02;;;15.45;;
36241;SDS011;22283;42.748;12.732;2023-01-13T13:39:21;35.95;;;15.07;;
36241;SDS011;22283;42.748;12.732;2023-01-13T13:44:44;22.60;;;16.08;;
36241;SDS011;22283;42.748;12.732;2023-01-13T13:50:15;27.38;;;15.50;;
36241;SDS011;22283;42.748;12.732;2023-01-13T13:55:22;26.08;;;14.07;;
36241;SDS011;22283;42.748;12.732;2023-01-13T14:00:28;29.00;;;16.90;;
36241;SDS011;22283;42.748;12.732;2023-01-13T14:05:50;20.70;;;15.68;;
36241;SDS011;22283;42.748;12.732;2023-01-13T14:10:53;28.30;;;18.92;;
36241;SDS011;22283;42.748;12.732;2023-01-13T14:15:55;32.57;;;18.33;;
36241;SDS011;22283;42.748;12.732;2023-01-13T14:21:03;31.25;;;19.25;;
36241;SDS011;22283;42.748;12.732;2023-01-13T14:26:16;21.98;;;14.65;;
36241;SDS011;22283;42.748;12.732;2023-01-13T14:31:16;18.63;;;13.23;;
36241;SDS011;22283;42.748;12.732;2023-01-13T14:36:21;21.33;;;14.33;;
36241;SDS011;22283;42.748;12.732;2023-01-13T14:41:37;26.42;;;16.45;;
36241;SDS011;22283;42.748;12.732;2023-01-13T14:46:46;29.65;;;18.38;;
36241;SDS011;22283;42.748;12.732;2023-01-13T14:51:47;41.10;;;26.27;;
36241;SDS011;22283;42.748;12.732;2023-01-13T14:56:51;52.57;;;31.13;;
36241;SDS011;22283;42.748;12.732;2023-01-13T15:01:54;33.70;;;23.50;;
36241;SDS011;22283;42.748;12.732;2023-01-13T15:06:55;51.53;;;32.33;;
36241;SDS011;22283;42.748;12.732;2023-01-13T15:11:56;46.67;;;25.90;;
36241;SDS011;22283;42.748;12.732;2023-01-13T15:16:58;48.80;;;27.42;;
36241;SDS011;22283;42.748;12.732;2023-01-13T15:21:58;42.10;;;28.07;;
36241;SDS011;22283;42.748;12.732;2023-01-13T15:26:59;53.13;;;35.27;;
36241;SDS011;22283;42.748;12.732;2023-01-13T15:32:00;61.87;;;36.50;;
36241;SDS011;22283;42.748;12.732;2023-01-13T15:37:01;59.07;;;39.73;;
36241;SDS011;22283;42.748;12.732;2023-01-13T15:42:09;53.88;;;34.22;;
36241;SDS011;22283;42.748;12.732;2023-01-13T15:47:30;40.47;;;26.30;;
36241;SDS011;22283;42.748;12.732;2023-01-13T15:52:31;41.30;;;25.90;;
36241;SDS011;22283;42.748;12.732;2023-01-13T15:57:32;56.23;;;31.90;;
36241;SDS011;22283;42.748;12.732;2023-01-13T16:02:34;39.65;;;28.17;;
36241;SDS011;22283;42.748;12.732;2023-01-13T16:07:35;32.67;;;21.00;;
36241;SDS011;22283;42.748;12.732;2023-01-13T16:12:36;33.17;;;9.88;;
36241;SDS011;22283;42.748;12.732;2023-01-13T16:17:37;17.40;;;9.50;;
36241;SDS011;22283;42.748;12.732;2023-01-13T16:22:38;16.80;;;4.60;;
36241;SDS011;22283;42.748;12.732;2023-01-13T16:27:38;21.73;;;7.00;;
36241;SDS011;22283;42.748;12.732;2023-01-13T16:32:39;32.17;;;11.03;;
36241;SDS011;22283;42.748;12.732;2023-01-13T16:37:39;43.23;;;18.77;;
36241;SDS011;22283;42.748;12.732;2023-01-13T16:42:40;27.27;;;17.77;;
36241;SDS011;22283;42.748;12.732;2023-01-13T16:47:40;22.03;;;11.87;;
36241;SDS011;22283;42.748;12.732;2023-01-13T16:52:42;24.67;;;14.15;;
36241;SDS011;22283;42.748;12.732;2023-01-13T16:57:43;29.53;;;14.00;;
36241;SDS011;22283;42.748;12.732;2023-01-13T17:02:43;26.57;;;8.40;;
36241;SDS011;22283;42.748;12.732;2023-01-13T17:07:45;25.30;;;11.00;;
36241;SDS011;22283;42.748;12.732;2023-01-13T17:12:47;36.78;;;17.02;;
36241;SDS011;22283;42.748;12.732;2023-01-13T17:17:47;21.00;;;10.70;;
36241;SDS011;22283;42.748;12.732;2023-01-13T17:22:51;21.30;;;8.90;;
36241;SDS011;22283;42.748;12.732;2023-01-13T17:27:51;35.77;;;11.37;;
36241;SDS011;22283;42.748;12.732;2023-01-13T17:32:52;24.90;;;9.37;;
36241;SDS011;22283;42.748;12.732;2023-01-13T17:37:52;20.50;;;5.73;;
36241;SDS011;22283;42.748;12.732;2023-01-13T17:42:53;29.60;;;14.43;;
36241;SDS011;22283;42.748;12.732;2023-01-13T17:47:54;21.80;;;14.27;;
36241;SDS011;22283;42.748;12.732;2023-01-13T17:52:58;21.33;;;13.32;;
36241;SDS011;22283;42.748;12.732;2023-01-13T17:57:59;22.23;;;12.23;;
36241;SDS011;22283;42.748;12.732;2023-01-13T18:02:59;28.47;;;14.63;;
36241;SDS011;22283;42.748;12.732;2023-01-13T18:08:00;27.83;;;12.27;;
36241;SDS011;22283;42.748;12.732;2023-01-13T18:13:00;34.50;;;14.23;;
36241;SDS011;22283;42.748;12.732;2023-01-13T18:18:02;24.02;;;12.00;;
36241;SDS011;22283;42.748;12.732;2023-01-13T18:23:03;23.50;;;13.10;;
36241;SDS011;22283;42.748;12.732;2023-01-13T18:28:22;27.98;;;15.95;;
36241;SDS011;22283;42.748;12.732;2023-01-13T18:33:23;38.60;;;20.20;;
36241;SDS011;22283;42.748;12.732;2023-01-13T18:38:23;31.60;;;16.20;;
36241;SDS011;22283;42.748;12.732;2023-01-13T18:43:27;25.45;;;11.70;;
36241;SDS011;22283;42.748;12.732;2023-01-13T18:48:28;25.27;;;11.63;;
36241;SDS011;22283;42.748;12.732;2023-01-13T18:53:30;25.33;;;10.35;;
36241;SDS011;22283;42.748;12.732;2023-01-13T18:58:31;21.95;;;11.18;;
36241;SDS011;22283;42.748;12.732;2023-01-13T19:03:32;24.17;;;12.97;;
36241;SDS011;22283;42.748;12.732;2023-01-13T19:08:33;29.93;;;14.87;;
36241;SDS011;22283;42.748;12.732;2023-01-13T19:13:34;30.93;;;16.53;;
36241;SDS011;22283;42.748;12.732;2023-01-13T19:18:35;25.63;;;12.38;;
36241;SDS011;22283;42.748;12.732;2023-01-13T19:23:36;18.20;;;9.60;;
36241;SDS011;22283;42.748;12.732;2023-01-13T19:28:37;33.83;;;17.80;;
36241;SDS011;22283;42.748;12.732;2023-01-13T19:33:41;23.20;;;13.45;;
36241;SDS011;22283;42.748;12.732;2023-01-13T19:38:42;26.93;;;13.93;;
36241;SDS011;22283;42.748;12.732;2023-01-13T19:43:42;23.57;;;11.00;;
36241;SDS011;22283;42.748;12.732;2023-01-13T19:49:02;17.15;;;7.40;;
36241;SDS011;22283;42.748;12.732;2023-01-13T19:54:02;22.37;;;7.53;;
36241;SDS011;22283;42.748;12.732;2023-01-13T19:59:03;22.70;;;9.40;;
36241;SDS011;22283;42.748;12.732;2023-01-13T20:04:03;20.67;;;10.07;;
36241;SDS011;22283;42.748;12.732;2023-01-13T20:09:06;11.45;;;5.90;;
36241;SDS011;22283;42.748;12.732;2023-01-13T20:14:10;14.87;;;6.10;;
36241;SDS011;22283;42.748;12.732;2023-01-13T20:19:11;10.45;;;5.32;;
36241;SDS011;22283;42.748;12.732;2023-01-13T20:24:15;13.63;;;6.30;;
36241;SDS011;22283;42.748;12.732;2023-01-13T20:29:16;28.50;;;11.30;;
36241;SDS011;22283;42.748;12.732;2023-01-13T20:34:17;59.07;;;26.93;;
36241;SDS011;22283;42.748;12.732;2023-01-13T20:39:19;53.30;;;26.83;;
36241;SDS011;22283;42.748;12.732;2023-01-13T20:44:21;53.65;;;26.08;;
36241;SDS011;22283;42.748;12.732;2023-01-13T20:49:22;34.63;;;19.77;;
36241;SDS011;22283;42.748;12.732;2023-01-13T20:59:24;18.55;;;9.75;;
36241;SDS011;22283;42.748;12.732;2023-01-13T21:04:25;21.10;;;8.43;;
36241;SDS011;22283;42.748;12.732;2023-01-13T21:09:27;24.23;;;9.20;;
36241;SDS011;22283;42.748;12.732;2023-01-13T21:14:28;94.32;;;49.85;;
36241;SDS011;22283;42.748;12.732;2023-01-13T21:19:55;21.88;;;9.15;;
36241;SDS011;22283;42.748;12.732;2023-01-13T21:24:56;26.87;;;8.07;;
36241;SDS011;22283;42.748;12.732;2023-01-13T21:29:57;34.90;;;13.88;;
36241;SDS011;22283;42.748;12.732;2023-01-13T21:34:58;31.37;;;12.47;;
36241;SDS011;22283;42.748;12.732;2023-01-13T21:39:58;20.07;;;5.73;;
36241;SDS011;22283;42.748;12.732;2023-01-13T21:44:59;15.10;;;5.90;;
36241;SDS011;22283;42.748;12.732;2023-01-13T21:50:20;18.55;;;10.18;;
36241;SDS011;22283;42.748;12.732;2023-01-13T21:55:22;38.03;;;15.82;;
36241;SDS011;22283;42.748;12.732;2023-01-13T22:00:28;42.00;;;21.08;;
36241;SDS011;22283;42.748;12.732;2023-01-13T22:05:30;33.17;;;17.92;;
36241;SDS011;22283;42.748;12.732;2023-01-13T22:10:32;28.10;;;16.67;;
36241;SDS011;22283;42.748;12.732;2023-01-13T22:15:33;33.05;;;15.95;;
36241;SDS011;22283;42.748;12.732;2023-01-13T22:20:34;30.00;;;14.77;;
36241;SDS011;22283;42.748;12.732;2023-01-13T22:25:34;28.93;;;10.67;;
36241;SDS011;22283;42.748;12.732;2023-01-13T22:30:35;22.10;;;9.00;;
36241;SDS011;22283;42.748;12.732;2023-01-13T22:35:35;30.47;;;11.23;;
36241;SDS011;22283;42.748;12.732;2023-01-13T22:40:37;27.42;;;10.32;;
36241;SDS011;22283;42.748;12.732;2023-01-13T22:45:38;26.07;;;9.67;;
36241;SDS011;22283;42.748;12.732;2023-01-13T22:50:38;18.33;;;6.97;;
36241;SDS011;22283;42.748;12.732;2023-01-13T22:55:39;20.97;;;6.30;;
36241;SDS011;22283;42.748;12.732;2023-01-13T23:00:39;19.30;;;6.00;;
36241;SDS011;22283;42.748;12.732;2023-01-13T23:05:41;28.83;;;8.75;;
36241;SDS011;22283;42.748;12.732;2023-01-13T23:10:41;20.80;;;6.67;;
36241;SDS011;22283;42.748;12.732;2023-01-13T23:15:42;21.63;;;5.53;;
36241;SDS011;22283;42.748;12.732;2023-01-13T23:20:43;17.83;;;5.07;;
36241;SDS011;22283;42.748;12.732;2023-01-13T23:25:50;19.50;;;6.23;;
36241;SDS011;22283;42.748;12.732;2023-01-13T23:30:52;35.20;;;17.27;;
36241;SDS011;22283;42.748;12.732;2023-01-13T23:35:53;31.80;;;16.90;;
36241;SDS011;22283;42.748;12.732;2023-01-13T23:41:03;24.40;;;12.60;;
36241;SDS011;22283;42.748;12.732;2023-01-13T23:46:07;22.50;;;7.38;;
36241;SDS011;22283;42.748;12.732;2023-01-13T23:51:10;14.55;;;5.90;;
36241;SDS011;22283;42.748;12.732;2023-01-13T23:56:16;22.05;;;7.22;;
